OROVILLE DAM (ORO)

Elevation: 900' · FEATHER R basin · Operator: CA Dept of Water Resources/O & M

Provisional data, subject to change.
Query executed Saturday at 15:48:35   clock

Select a sensor type for a plot of data.
Note: Reservoir Flows are daily averages.

Earlier

Date RES ELE    STORAGE    RES CHG    TOC STO    ABV TOC    OUTFLOW    INFLOW    EVAP    FNF    PPT INC    RAIN    PPTINC4   
 FEET   AF   AF   AF   AF   CFS   CFS   CFS   CFS   INCHES   INCHES   INCHES  
11/04/2016 737.04 1559698 -3104 3029853 -1470155 3678 2102 33 2465 0.00 5.28 0.00
11/05/2016 736.68 1556510 -3188 3039098 -1482588 3362 1878 33 2011 0.00 5.28 0.00
11/06/2016 736.34 1553504 -3006 3047369 -1493866 3662 2173 27 2775 0.00 5.28 0.00
11/07/2016 736.08 1551207 -2297 3056088 -1504881 3555 2414 17 2564 0.00 5.28 0.00
11/08/2016 735.70 1547855 -3352 3064546 -1516691 3847 2082 13 2296 0.00 5.28 0.00
11/09/2016 735.30 1544332 -3523 3072749 -1528417 3339 1602 39 1331 0.00 5.28 0.00
11/10/2016 734.91 1540902 -3430 3080707 -1539805 3722 2017 23 1971 0.00 5.28 0.00
11/11/2016 734.49 1537215 -3687 3088426 -1551211 3703 1912 23 2012 0.00 5.28 0.00
11/12/2016 734.07 1533534 -3681 3095660 -1562126 3749 1916 23 1827 0.00 5.28 0.00
11/13/2016 733.64 1529771 -3763 3102930 -1573159 3448 1574 23 1331 0.00 5.28 0.00
11/14/2016 733.12 1525230 -4541 3109982 -1584752 3352 1067 49 1417 0.00 5.28 0.00
11/15/2016 732.70 1521568 -3661 3106708 -1585140 3345 1532 33 1619 0.04 5.32 0.00
11/16/2016 732.23 1517478 -4091 3113584 -1596106 3756 1738 0 1844 0.00 5.32 0.04
11/17/2016 731.55 1511561 -5917 3120316 -1608756 3879 928 26 1333 0.00 5.32 0.00
11/18/2016 730.88 1505758 -5803 3126847 -1621089 4092 1189 23 2250 e 0.00 5.32 0.00
11/19/2016 730.74 1504548 -1210 3064342 -1559795 3718 2986 10 4450 e 1.40 6.72 0.00
11/20/2016 730.53 1502734 -1814 3043727 -1540993 3766 2942 3 3429 0.28 7.00 1.40
11/21/2016 730.77 1504807 2073 3050027 -1545220 3001 4132 42 4528 0.00 7.00 0.28
11/22/2016 730.42 1501783 -3024 -- -- 3627 2159 13 2471 0.40 7.40 0.00
11/23/2016 730.29 1500661 -1122 -- -- 3584 2995 19 4299 0.04 7.44 0.44
11/24/2016 730.12 1499195 -1466 3048171 -1548976 3563 2836 13 3179 0.00 7.44 0.00
11/25/2016 729.66 1495232 -3963 3056676 -1561444 4328 2213 13 2754 0.00 7.44 0.00
11/26/2016 729.40 1492996 -2236 3024534 -1531538 3501 2517 13 3425 0.60 8.04 0.00
11/27/2016 729.30 1492136 -860 3014910 -1522774 3544 3123 13 3466 0.12 8.16 0.64
11/28/2016 729.18 1491105 -1031 3017207 -1526102 3532 3025 13 3344 0.12 8.28 0.12
11/29/2016 728.88 1488530 -2575 3026831 -1538301 3516 2240 23 -- 0.00 8.28 0.08
11/30/2016 728.56 1485786 -2744 3035660 -1549874 3714 2338 7 -- 0.00 8.28 0.00
12/01/2016 728.10 1481848 -3938 3044730 -1562883 3660 1724 7 -- 0.00 8.28 0.00
12/02/2016 727.66 1478088 -3760 3053528 -1575441 3463 1551 27 -- 0.00 8.28 0.00
12/03/2016 -- -- -- -- -- -- -- -- -- -- -- --

Later | Latest

Warning! This data is preliminary and subject to revision.

Show ORO Map | Plot ORO Data | 1 Month ORO Data | Real-Time ORO Data | ORO Info